createdAt,value
2018-10-17T00:02:27.245Z,9.73
2018-10-17T00:04:55.739Z,10.17
2018-10-17T00:07:24.230Z,10.17
2018-10-17T00:09:52.648Z,10.27
2018-10-17T00:12:21.084Z,9.40
2018-10-17T00:14:49.474Z,9.53
2018-10-17T00:17:17.920Z,9.60
2018-10-17T00:19:46.323Z,10.17
2018-10-17T00:22:14.730Z,9.70
2018-10-17T00:24:43.165Z,10.67
2018-10-17T00:27:11.611Z,11.30
2018-10-17T00:29:40.031Z,10.37
2018-10-17T00:32:08.432Z,10.27
2018-10-17T00:34:36.868Z,10.20
2018-10-17T00:37:05.757Z,10.83
2018-10-17T00:39:34.152Z,10.07
2018-10-17T00:42:02.617Z,10.47
2018-10-17T00:44:31.017Z,9.17
2018-10-17T00:46:59.491Z,10.20
2018-10-17T00:49:27.872Z,9.57
2018-10-17T00:51:56.275Z,10.80
2018-10-17T00:54:24.679Z,9.60
2018-10-17T00:56:53.104Z,9.70
2018-10-17T00:59:21.497Z,9.83
2018-10-17T01:01:49.958Z,10.07
2018-10-17T01:04:18.421Z,10.60
2018-10-17T01:06:46.848Z,11.33
2018-10-17T01:09:15.540Z,10.57
2018-10-17T01:11:43.970Z,11.20
2018-10-17T01:14:12.504Z,10.20
2018-10-17T01:16:40.984Z,11.93
2018-10-17T01:19:09.524Z,11.00
2018-10-17T01:21:38.132Z,11.10
2018-10-17T01:24:06.716Z,11.97
2018-10-17T01:26:35.204Z,11.80
2018-10-17T01:29:03.784Z,10.83
2018-10-17T01:31:32.272Z,11.17
2018-10-17T01:34:00.796Z,10.00
2018-10-17T01:36:29.331Z,10.40
2018-10-17T01:38:57.800Z,10.70
2018-10-17T01:41:26.304Z,10.50
2018-10-17T01:43:54.780Z,10.80
2018-10-17T01:46:23.288Z,10.73
2018-10-17T01:48:51.764Z,11.50
2018-10-17T01:51:20.252Z,10.63
2018-10-17T01:53:48.688Z,11.80
2018-10-17T01:56:17.187Z,10.50
2018-10-17T01:58:45.652Z,10.87
2018-10-17T02:01:14.223Z,10.23
2018-10-17T02:03:42.623Z,10.60
2018-10-17T02:06:11.120Z,10.43
2018-10-17T02:08:39.521Z,9.03
2018-10-17T02:11:08.059Z,9.40
2018-10-17T02:13:36.465Z,10.27
2018-10-17T02:16:04.972Z,10.33
2018-10-17T02:18:33.407Z,11.80
2018-10-17T02:21:01.901Z,9.83
2018-10-17T02:23:30.366Z,10.37
2018-10-17T02:25:58.868Z,10.50
2018-10-17T02:28:27.372Z,10.47
2018-10-17T02:30:55.916Z,11.57
2018-10-17T02:33:24.290Z,10.97
2018-10-17T02:35:52.836Z,11.90
2018-10-17T02:38:21.260Z,10.97
2018-10-17T02:40:49.784Z,10.50
2018-10-17T02:43:18.273Z,11.67
2018-10-17T02:45:46.720Z,10.60
2018-10-17T02:48:15.191Z,11.03
2018-10-17T02:50:43.689Z,10.80
2018-10-17T02:53:12.195Z,11.70
2018-10-17T02:55:40.688Z,11.57
2018-10-17T02:58:09.130Z,11.63
2018-10-17T03:00:37.605Z,11.80
2018-10-17T03:03:06.104Z,11.13
2018-10-17T03:05:34.581Z,10.40
2018-10-17T03:08:03.019Z,10.50
2018-10-17T03:10:31.487Z,11.60
2018-10-17T03:13:00.081Z,11.77
2018-10-17T03:15:28.505Z,11.17
2018-10-17T03:17:57.025Z,10.93
2018-10-17T03:20:25.471Z,11.40
2018-10-17T03:22:53.960Z,10.60
2018-10-17T03:25:22.426Z,11.67
2018-10-17T03:27:50.923Z,11.93
2018-10-17T03:30:19.421Z,10.73
2018-10-17T03:32:47.897Z,11.80
2018-10-17T03:35:16.467Z,11.20
2018-10-17T03:37:44.847Z,12.93
2018-10-17T03:40:13.341Z,11.97
2018-10-17T03:42:41.810Z,11.73
2018-10-17T03:45:10.324Z,11.70
2018-10-17T03:47:38.787Z,11.60
2018-10-17T03:50:07.280Z,11.80
2018-10-17T03:52:35.749Z,11.87
2018-10-17T03:55:04.350Z,12.70
2018-10-17T03:57:32.863Z,12.30
2018-10-17T04:00:01.457Z,13.20
2018-10-17T04:02:29.997Z,12.43
2018-10-17T04:04:58.460Z,13.10
2018-10-17T04:07:26.921Z,12.30
2018-10-17T04:09:55.458Z,11.30
2018-10-17T04:12:23.897Z,11.80
2018-10-17T04:14:52.365Z,13.07
2018-10-17T04:17:20.857Z,13.03
2018-10-17T04:19:49.326Z,12.57
2018-10-17T04:22:17.805Z,12.13
2018-10-17T04:24:46.289Z,11.30
2018-10-17T04:27:14.772Z,11.00
2018-10-17T04:29:43.259Z,11.13
2018-10-17T04:32:11.818Z,11.23
2018-10-17T04:34:40.325Z,12.33
2018-10-17T04:37:08.877Z,12.03
2018-10-17T04:39:37.305Z,12.17
2018-10-17T04:42:05.786Z,10.40
2018-10-17T04:44:34.282Z,11.37
2018-10-17T04:47:02.780Z,11.90
2018-10-17T04:49:31.160Z,11.13
2018-10-17T04:51:59.568Z,12.60
2018-10-17T04:54:28.129Z,10.70
2018-10-17T04:56:56.592Z,10.13
2018-10-17T04:59:24.984Z,11.30
2018-10-17T05:01:53.432Z,10.77
2018-10-17T05:04:22.015Z,10.20
2018-10-17T05:06:50.500Z,10.30
2018-10-17T05:09:18.851Z,10.90
2018-10-17T05:11:47.312Z,10.47
2018-10-17T05:14:15.732Z,11.37
2018-10-17T05:16:44.148Z,11.07
2018-10-17T05:19:12.639Z,11.00
2018-10-17T05:21:41.012Z,11.40
2018-10-17T05:24:09.425Z,11.83
2018-10-17T05:28:02.284Z,10.57
2018-10-17T05:30:30.773Z,11.33
2018-10-17T05:32:59.179Z,12.80
2018-10-17T05:35:27.628Z,12.50
2018-10-17T05:37:56.060Z,12.57
2018-10-17T05:40:24.498Z,12.30
2018-10-17T05:42:52.982Z,10.70
2018-10-17T05:45:21.443Z,12.00
2018-10-17T05:47:49.884Z,10.83
2018-10-17T05:50:18.338Z,12.37
2018-10-17T05:52:46.782Z,11.10
2018-10-17T05:55:15.261Z,12.20
2018-10-17T05:57:43.632Z,10.80
2018-10-17T06:00:12.076Z,9.90
2018-10-17T06:02:40.578Z,10.60
2018-10-17T06:05:09.358Z,11.03
2018-10-17T06:07:37.729Z,11.90
2018-10-17T06:10:07.747Z,11.63
2018-10-17T06:12:36.255Z,11.23
2018-10-17T06:15:05.148Z,11.20
2018-10-17T06:17:33.585Z,11.70
2018-10-17T06:20:02.015Z,10.17
2018-10-17T06:22:30.447Z,10.93
2018-10-17T06:24:58.903Z,10.43
2018-10-17T06:27:27.322Z,10.50
2018-10-17T06:29:55.779Z,20.70
2018-10-17T06:32:24.265Z,10.13
2018-10-17T06:34:52.798Z,10.83
2018-10-17T06:37:21.157Z,9.80
2018-10-17T06:39:49.612Z,10.27
2018-10-17T06:42:18.033Z,9.70
2018-10-17T06:44:46.497Z,9.70
2018-10-17T06:47:14.995Z,10.07
2018-10-17T06:49:43.360Z,10.00
2018-10-17T06:52:11.824Z,12.07
2018-10-17T06:54:40.304Z,11.97
2018-10-17T06:57:08.951Z,12.67
2018-10-17T06:59:37.365Z,9.73
2018-10-17T07:02:06.084Z,10.50
2018-10-17T07:04:34.568Z,10.37
2018-10-17T07:07:03.204Z,10.00
2018-10-17T07:09:31.653Z,10.37
2018-10-17T07:12:00.254Z,12.20
2018-10-17T07:14:29.508Z,13.40
2018-10-17T07:16:58.795Z,11.67
2018-10-17T07:19:27.232Z,12.53
2018-10-17T07:21:55.882Z,12.63
2018-10-17T07:24:24.517Z,11.20
2018-10-17T07:26:53.180Z,11.27
2018-10-17T07:29:21.663Z,11.43
2018-10-17T07:31:50.111Z,11.93
2018-10-17T07:34:18.586Z,12.47
2018-10-17T07:36:47.296Z,12.03
2018-10-17T07:39:15.824Z,12.33
2018-10-17T07:41:44.310Z,11.40
2018-10-17T07:44:12.794Z,12.63
2018-10-17T07:46:41.256Z,11.30
2018-10-17T07:49:09.769Z,13.87
2018-10-17T07:51:38.491Z,12.80
2018-10-17T07:54:07.064Z,13.83
2018-10-17T07:56:35.834Z,12.43
2018-10-17T07:59:04.289Z,13.07
2018-10-17T08:01:32.708Z,14.23
2018-10-17T08:04:01.127Z,14.60
2018-10-17T08:06:29.643Z,12.53
2018-10-17T08:08:58.101Z,12.43
2018-10-17T08:11:26.561Z,13.40
2018-10-17T08:13:55.057Z,12.97
2018-10-17T08:16:23.605Z,11.60
2018-10-17T08:18:52.082Z,12.80
2018-10-17T08:21:20.595Z,12.43
2018-10-17T08:23:49.060Z,11.40
2018-10-17T08:26:17.527Z,14.77
2018-10-17T08:28:45.997Z,12.73
2018-10-17T08:31:14.417Z,13.50
2018-10-17T08:33:42.875Z,13.00
2018-10-17T08:36:11.441Z,14.03
2018-10-17T08:38:39.860Z,13.03
2018-10-17T08:41:08.626Z,13.43
2018-10-17T08:43:36.908Z,13.23
2018-10-17T08:46:05.325Z,12.17
2018-10-17T08:48:33.775Z,12.33
2018-10-17T08:51:02.272Z,15.00
2018-10-17T08:53:30.780Z,14.23
2018-10-17T08:55:59.357Z,13.27
2018-10-17T08:58:27.902Z,16.50
2018-10-17T09:00:56.458Z,14.57
2018-10-17T09:03:24.914Z,15.10
2018-10-17T09:05:53.488Z,14.13
2018-10-17T09:08:22.087Z,14.13
2018-10-17T09:10:50.510Z,13.53
2018-10-17T09:13:19.063Z,13.33
2018-10-17T09:15:47.496Z,14.83
2018-10-17T09:18:16.037Z,14.83
2018-10-17T09:20:44.607Z,13.50
2018-10-17T09:23:13.213Z,14.73
2018-10-17T09:25:41.769Z,13.83
2018-10-17T09:28:10.392Z,13.33
2018-10-17T09:30:38.923Z,13.60
2018-10-17T09:33:07.308Z,13.87
2018-10-17T09:35:35.874Z,14.30
2018-10-17T09:38:04.332Z,14.50
2018-10-17T09:40:32.790Z,13.53
2018-10-17T09:43:01.292Z,13.60
2018-10-17T09:45:29.773Z,13.20
2018-10-17T09:47:58.309Z,14.03
2018-10-17T09:50:26.786Z,15.70
2018-10-17T09:52:55.332Z,14.40
2018-10-17T09:55:23.757Z,13.73
2018-10-17T09:57:52.258Z,14.43
2018-10-17T10:00:25.997Z,16.50
2018-10-17T10:02:54.472Z,15.27
2018-10-17T10:05:22.908Z,15.10
2018-10-17T10:07:51.477Z,14.57
2018-10-17T10:10:19.981Z,14.63
2018-10-17T10:12:48.440Z,14.00
2018-10-17T10:15:16.878Z,14.63
2018-10-17T10:17:45.468Z,17.87
2018-10-17T10:20:13.811Z,13.70
2018-10-17T10:22:42.244Z,14.70
2018-10-17T10:25:10.842Z,13.80
2018-10-17T10:27:39.309Z,14.03
2018-10-17T10:30:07.776Z,14.97
2018-10-17T10:32:36.176Z,14.57
2018-10-17T10:35:05.001Z,14.20
2018-10-17T10:37:33.449Z,15.33
2018-10-17T10:40:01.913Z,14.70
2018-10-17T10:42:30.316Z,14.60
2018-10-17T10:44:58.880Z,15.00
2018-10-17T10:47:27.257Z,15.60
2018-10-17T10:49:55.751Z,14.00
2018-10-17T10:52:24.152Z,13.80
2018-10-17T10:54:52.573Z,14.50
2018-10-17T10:57:21.004Z,14.70
2018-10-17T10:59:49.510Z,13.67
2018-10-17T11:02:18.022Z,13.10
2018-10-17T11:04:46.501Z,14.30
2018-10-17T11:07:14.968Z,13.60
2018-10-17T11:09:43.397Z,13.97
2018-10-17T11:12:11.972Z,13.73
2018-10-17T11:14:40.626Z,14.20
2018-10-17T11:17:09.057Z,13.93
2018-10-17T11:19:37.465Z,13.40
2018-10-17T11:22:06.182Z,13.17
2018-10-17T11:24:34.581Z,13.63
2018-10-17T11:27:03.497Z,12.90
2018-10-17T11:29:31.914Z,13.87
2018-10-17T11:32:00.483Z,12.90
2018-10-17T11:34:28.877Z,14.77
2018-10-17T11:36:57.348Z,13.37
2018-10-17T11:39:25.767Z,13.23
2018-10-17T11:41:54.190Z,13.20
2018-10-17T11:44:22.653Z,12.73
2018-10-17T11:46:51.090Z,12.90
2018-10-17T11:49:19.524Z,12.80
2018-10-17T11:51:47.942Z,11.83
2018-10-17T11:54:16.480Z,13.50
2018-10-17T11:56:45.017Z,12.57
2018-10-17T11:59:13.578Z,13.17
2018-10-17T12:01:42.061Z,12.83
2018-10-17T12:04:10.685Z,13.37
2018-10-17T12:06:39.005Z,13.77
2018-10-17T12:09:08.321Z,13.10
2018-10-17T12:11:36.800Z,11.70
2018-10-17T12:14:05.630Z,11.80
2018-10-17T12:16:34.051Z,11.77
2018-10-17T12:19:02.686Z,13.43
2018-10-17T12:21:31.139Z,11.33
2018-10-17T12:23:59.583Z,10.40
2018-10-17T12:26:28.141Z,11.07
2018-10-17T12:28:56.713Z,10.03
2018-10-17T12:31:25.455Z,10.30
2018-10-17T12:33:53.954Z,10.07
2018-10-17T12:36:23.491Z,10.50
2018-10-17T12:38:52.046Z,10.47
2018-10-17T12:41:20.617Z,10.23
2018-10-17T12:43:49.113Z,10.97
2018-10-17T12:46:17.676Z,11.27
2018-10-17T12:48:46.249Z,11.17
2018-10-17T12:51:14.852Z,11.50
2018-10-17T12:53:43.389Z,11.07
2018-10-17T12:56:11.950Z,11.17
2018-10-17T12:58:40.309Z,9.97
2018-10-17T13:01:08.941Z,9.80
2018-10-17T13:03:37.436Z,10.40
2018-10-17T13:06:06.144Z,10.73
2018-10-17T13:08:34.668Z,9.90
2018-10-17T13:11:03.243Z,11.03
2018-10-17T13:13:31.613Z,10.17
2018-10-17T13:16:00.167Z,9.00
2018-10-17T13:18:28.739Z,8.60
2018-10-17T13:20:57.189Z,9.80
2018-10-17T13:23:25.767Z,9.07
2018-10-17T13:25:54.324Z,10.20
2018-10-17T13:28:22.892Z,9.50
2018-10-17T13:30:51.485Z,9.57
2018-10-17T13:33:19.943Z,9.47
2018-10-17T13:35:48.442Z,8.97
2018-10-17T13:38:16.970Z,9.50
2018-10-17T13:40:45.417Z,9.53
2018-10-17T13:43:13.909Z,20.73
2018-10-17T13:45:42.294Z,9.57
2018-10-17T13:48:10.748Z,8.80
2018-10-17T13:50:39.193Z,8.77
2018-10-17T13:53:08.122Z,10.53
2018-10-17T13:55:36.521Z,9.13
2018-10-17T13:58:05.310Z,9.27
2018-10-17T14:00:33.725Z,9.80
2018-10-17T14:03:02.184Z,8.73
2018-10-17T14:05:30.665Z,8.30
2018-10-17T14:07:59.191Z,8.23
2018-10-17T14:10:27.694Z,9.03
2018-10-17T14:12:56.224Z,7.90
2018-10-17T14:15:24.673Z,8.90
2018-10-17T14:17:53.247Z,8.60
2018-10-17T14:20:21.749Z,9.67
2018-10-17T14:22:50.237Z,9.20
2018-10-17T14:25:18.697Z,8.77
2018-10-17T14:27:47.120Z,8.23
2018-10-17T14:30:15.613Z,8.80
2018-10-17T14:32:44.153Z,8.37
2018-10-17T14:35:12.984Z,9.77
2018-10-17T14:37:42.504Z,8.97
2018-10-17T14:40:11.025Z,8.80
2018-10-17T14:42:39.553Z,9.10
2018-10-17T14:45:09.623Z,9.90
2018-10-17T14:47:38.181Z,10.07
2018-10-17T14:50:06.705Z,9.33
2018-10-17T14:52:35.362Z,9.60
2018-10-17T14:55:04.028Z,9.50
2018-10-17T14:57:32.693Z,8.87
2018-10-17T15:00:01.214Z,9.03
2018-10-17T15:02:29.805Z,8.83
2018-10-17T15:04:58.382Z,8.97
2018-10-17T15:07:27.033Z,8.90
2018-10-17T15:09:55.637Z,9.77
2018-10-17T15:12:24.114Z,8.40
2018-10-17T15:14:52.699Z,9.07
2018-10-17T15:17:21.196Z,9.37
2018-10-17T15:19:49.762Z,9.20
2018-10-17T15:22:18.274Z,9.30
2018-10-17T15:24:46.894Z,8.73
2018-10-17T15:27:15.815Z,9.00
2018-10-17T15:29:44.274Z,9.63
2018-10-17T15:32:12.992Z,9.70
2018-10-17T15:36:10.942Z,8.20
2018-10-17T15:38:39.554Z,9.30
2018-10-17T15:41:08.012Z,10.30
2018-10-17T15:43:36.620Z,9.83
2018-10-17T15:46:05.216Z,10.37
2018-10-17T15:48:33.709Z,11.20
2018-10-17T15:51:02.384Z,9.70
2018-10-17T15:53:31.498Z,11.33
2018-10-17T15:56:01.012Z,10.50
2018-10-17T15:58:29.608Z,11.77
2018-10-17T16:00:58.258Z,10.60
2018-10-17T16:03:26.716Z,11.13
2018-10-17T16:05:55.222Z,11.13
2018-10-17T16:08:23.719Z,11.17
2018-10-17T16:10:52.311Z,11.23
2018-10-17T16:13:20.888Z,10.30
2018-10-17T16:15:49.501Z,11.90
2018-10-17T16:18:18.110Z,11.10
2018-10-17T16:20:46.537Z,11.37
2018-10-17T16:23:15.302Z,11.43
2018-10-17T16:25:46.040Z,11.77
2018-10-17T16:28:14.646Z,11.20
2018-10-17T16:37:42.608Z,11.80
2018-10-17T16:40:11.228Z,11.50
2018-10-17T16:42:39.805Z,11.23
2018-10-17T16:45:09.660Z,11.57
2018-10-17T16:47:38.231Z,11.20
2018-10-17T16:50:07.960Z,11.90
2018-10-17T16:52:36.722Z,11.53
2018-10-17T16:55:06.695Z,11.80
2018-10-17T16:57:35.205Z,13.10
2018-10-17T17:00:04.388Z,12.20
2018-10-17T17:02:32.878Z,11.90
2018-10-17T17:05:01.416Z,12.57
2018-10-17T17:07:30.083Z,13.13
2018-10-17T17:09:58.707Z,11.97
2018-10-17T17:12:27.251Z,12.97
2018-10-17T17:14:55.855Z,12.77
2018-10-17T17:17:24.270Z,13.90
2018-10-17T17:19:52.777Z,12.97
2018-10-17T17:22:21.280Z,12.13
2018-10-17T17:24:49.868Z,12.63
2018-10-17T17:27:20.042Z,13.40
2018-10-17T17:29:48.707Z,13.37
2018-10-17T17:32:17.559Z,13.73
2018-10-17T17:34:46.578Z,13.97
2018-10-17T17:37:15.078Z,13.83
2018-10-17T17:39:43.579Z,14.10
2018-10-17T17:42:12.145Z,15.10
2018-10-17T17:44:40.696Z,16.50
2018-10-17T17:47:09.235Z,14.93
2018-10-17T17:49:37.710Z,16.90
2018-10-17T17:52:06.270Z,16.87
2018-10-17T17:54:34.784Z,18.13
2018-10-17T17:57:03.263Z,19.17
2018-10-17T17:59:31.741Z,19.90
2018-10-17T18:02:00.540Z,18.77
2018-10-17T18:04:30.342Z,18.10
2018-10-17T18:06:58.837Z,20.53
2018-10-17T18:09:27.390Z,21.93
2018-10-17T18:11:56.301Z,23.67
2018-10-17T18:14:25.197Z,22.40
2018-10-17T18:17:57.062Z,21.90
2018-10-17T18:20:27.486Z,23.43
2018-10-17T18:22:56.965Z,23.47
2018-10-17T18:25:25.571Z,25.90
2018-10-17T18:27:55.305Z,25.10
2018-10-17T18:30:23.953Z,26.17
2018-10-17T18:32:52.425Z,26.47
2018-10-17T18:35:21.105Z,25.43
2018-10-17T18:37:49.852Z,27.97
2018-10-17T18:40:18.602Z,26.40
2018-10-17T18:42:47.793Z,26.50
2018-10-17T18:45:16.460Z,26.87
2018-10-17T18:47:45.687Z,30.43
2018-10-17T18:50:14.607Z,31.80
2018-10-17T18:52:44.456Z,31.80
2018-10-17T18:55:13.060Z,34.83
2018-10-17T18:57:41.722Z,33.80
2018-10-17T19:00:10.732Z,38.87
2018-10-17T19:02:39.852Z,35.30
2018-10-17T19:05:08.504Z,35.07
2018-10-17T19:07:37.089Z,36.10
2018-10-17T19:10:05.934Z,38.40
2018-10-17T19:12:34.483Z,38.17
2018-10-17T19:15:03.084Z,36.17
2018-10-17T19:17:31.478Z,38.53
2018-10-17T19:19:59.977Z,36.80
2018-10-17T19:22:28.537Z,35.80
2018-10-17T19:24:57.051Z,38.30
2018-10-17T19:27:26.287Z,39.63
2018-10-17T19:29:54.856Z,40.87
2018-10-17T19:32:23.461Z,38.87
2018-10-17T19:34:52.004Z,38.80
2018-10-17T19:37:20.602Z,36.53
2018-10-17T19:39:49.266Z,38.80
2018-10-17T19:42:17.738Z,38.47
2018-10-17T19:51:49.735Z,39.13
2018-10-17T19:54:18.371Z,44.65
2018-10-17T19:56:46.881Z,40.97
2018-10-17T19:59:15.408Z,38.87
2018-10-17T20:01:43.928Z,42.10
2018-10-17T20:04:12.485Z,40.40
2018-10-17T20:06:41.001Z,42.07
2018-10-17T20:09:10.423Z,44.35
2018-10-17T20:11:38.927Z,47.67
2018-10-17T20:14:08.285Z,43.00
2018-10-17T20:16:36.805Z,42.53
2018-10-17T20:19:05.477Z,40.53
2018-10-17T20:21:33.998Z,43.90
2018-10-17T20:25:31.705Z,43.60
2018-10-17T20:28:00.288Z,47.62
2018-10-17T20:30:28.969Z,47.08
2018-10-17T20:32:57.596Z,45.97
2018-10-17T20:35:26.280Z,46.30
2018-10-17T20:37:54.817Z,44.80
2018-10-17T20:40:23.492Z,45.00
2018-10-17T20:42:51.981Z,47.27
2018-10-17T20:45:20.571Z,45.47
2018-10-17T20:47:49.132Z,43.80
2018-10-17T20:50:17.674Z,43.93
2018-10-17T20:52:46.156Z,44.50
2018-10-17T20:55:14.704Z,45.60
2018-10-17T20:57:43.225Z,43.80
2018-10-17T21:00:11.816Z,44.33
2018-10-17T21:02:40.481Z,45.17
2018-10-17T21:05:09.082Z,47.27
2018-10-17T21:07:37.856Z,46.67
2018-10-17T21:10:07.321Z,47.17
2018-10-17T21:12:35.870Z,47.47
2018-10-17T21:15:04.743Z,47.10
2018-10-17T21:17:33.262Z,45.73
2018-10-17T21:20:01.767Z,48.83
2018-10-17T21:22:30.305Z,47.17
2018-10-17T21:24:58.814Z,45.53
2018-10-17T21:27:27.265Z,47.73
2018-10-17T21:29:55.832Z,47.27
2018-10-17T21:32:24.361Z,48.70
2018-10-17T21:34:52.861Z,46.27
2018-10-17T21:37:21.466Z,47.03
2018-10-17T21:39:49.976Z,46.20
2018-10-17T21:42:18.448Z,47.73
2018-10-17T21:44:46.997Z,46.73
2018-10-17T21:47:15.540Z,47.33
2018-10-17T21:49:45.146Z,48.07
2018-10-17T21:52:13.608Z,49.10
2018-10-17T21:54:42.148Z,46.70
2018-10-17T21:57:10.614Z,50.00
2018-10-17T21:59:39.092Z,51.67
2018-10-17T22:02:07.663Z,48.70
2018-10-17T22:04:36.142Z,50.10
2018-10-17T22:07:04.916Z,50.40
2018-10-17T22:09:33.427Z,51.23
2018-10-17T22:12:01.889Z,50.17
2018-10-17T22:14:30.389Z,47.57
2018-10-17T22:17:05.429Z,48.07
2018-10-17T22:19:36.096Z,51.17
2018-10-17T22:22:05.060Z,50.20
2018-10-17T22:24:33.511Z,51.40
2018-10-17T22:27:02.200Z,52.17
2018-10-17T22:29:30.692Z,49.67
2018-10-17T22:31:59.176Z,50.40
2018-10-17T22:34:27.733Z,49.20
2018-10-17T22:36:56.231Z,47.63
2018-10-17T22:39:24.645Z,52.40
2018-10-17T22:41:53.089Z,49.80
2018-10-17T22:44:21.534Z,52.40
2018-10-17T22:46:49.976Z,48.90
2018-10-17T22:49:18.416Z,51.20
2018-10-17T22:51:46.932Z,49.70
2018-10-17T22:54:15.361Z,52.93
2018-10-17T22:56:43.792Z,56.23
2018-10-17T22:59:12.253Z,49.90
2018-10-17T23:01:40.824Z,49.53
2018-10-17T23:04:09.512Z,47.20
2018-10-17T23:06:38.428Z,49.67
2018-10-17T23:09:10.217Z,49.80
2018-10-17T23:11:38.877Z,47.73
2018-10-17T23:14:07.841Z,45.17
2018-10-17T23:23:39.723Z,45.40
2018-10-17T23:26:08.467Z,47.30
2018-10-17T23:28:37.237Z,47.57
2018-10-17T23:31:05.720Z,46.30
2018-10-17T23:33:34.204Z,46.57
2018-10-17T23:36:02.633Z,47.47
2018-10-17T23:38:31.099Z,47.73
2018-10-17T23:40:59.546Z,45.27
2018-10-17T23:43:28.169Z,45.77
2018-10-17T23:45:56.612Z,45.90
2018-10-17T23:48:25.021Z,49.50
2018-10-17T23:50:53.464Z,45.83
2018-10-17T23:53:21.889Z,45.07
2018-10-17T23:55:50.326Z,46.50
2018-10-17T23:58:18.897Z,45.27
